createdAt,value
2018-09-14T00:02:21.435Z,21.73
2018-09-14T00:04:49.821Z,22.90
2018-09-14T00:07:18.138Z,22.37
2018-09-14T00:09:46.585Z,21.97
2018-09-14T00:12:14.923Z,21.80
2018-09-14T00:14:43.274Z,21.73
2018-09-14T00:17:11.582Z,20.63
2018-09-14T00:19:39.921Z,20.70
2018-09-14T00:22:08.291Z,21.83
2018-09-14T00:24:36.643Z,22.33
2018-09-14T00:27:05.069Z,22.30
2018-09-14T00:29:33.460Z,21.37
2018-09-14T00:32:01.826Z,21.33
2018-09-14T00:34:30.173Z,22.13
2018-09-14T00:36:58.500Z,22.47
2018-09-14T00:39:26.870Z,21.87
2018-09-14T00:41:55.194Z,18.73
2018-09-14T00:44:23.584Z,20.63
2018-09-14T00:46:52.894Z,21.33
2018-09-14T00:49:21.247Z,20.97
2018-09-14T00:51:49.575Z,19.90
2018-09-14T00:54:17.947Z,19.43
2018-09-14T00:56:46.339Z,18.53
2018-09-14T00:59:14.679Z,19.27
2018-09-14T01:01:42.974Z,19.37
2018-09-14T01:04:11.306Z,19.30
2018-09-14T01:06:39.667Z,21.00
2018-09-14T01:09:13.300Z,22.10
2018-09-14T01:11:41.867Z,21.67
2018-09-14T01:14:10.179Z,21.90
2018-09-14T01:16:38.531Z,20.57
2018-09-14T01:19:06.914Z,21.33
2018-09-14T01:21:35.275Z,22.80
2018-09-14T01:24:03.624Z,21.83
2018-09-14T01:26:32.095Z,23.60
2018-09-14T01:29:00.422Z,21.10
2018-09-14T01:31:28.732Z,23.27
2018-09-14T01:33:57.076Z,24.30
2018-09-14T01:36:25.403Z,22.70
2018-09-14T01:38:53.713Z,24.03
2018-09-14T01:41:22.050Z,23.23
2018-09-14T01:43:50.366Z,23.47
2018-09-14T01:46:18.808Z,24.60
2018-09-14T01:48:47.206Z,25.17
2018-09-14T01:51:15.554Z,25.80
2018-09-14T01:53:44.018Z,23.83
2018-09-14T01:56:12.503Z,25.10
2018-09-14T01:58:40.799Z,28.37
2018-09-14T02:01:09.166Z,27.33
2018-09-14T02:03:37.555Z,28.13
2018-09-14T02:06:05.913Z,28.50
2018-09-14T02:08:34.324Z,26.83
2018-09-14T02:11:02.654Z,28.87
2018-09-14T02:13:31.005Z,25.37
2018-09-14T02:15:59.313Z,27.17
2018-09-14T02:18:27.721Z,28.30
2018-09-14T02:20:56.034Z,30.10
2018-09-14T02:23:24.391Z,28.40
2018-09-14T02:25:52.764Z,25.57
2018-09-14T02:28:21.259Z,30.70
2018-09-14T02:30:49.773Z,29.40
2018-09-14T02:33:18.107Z,30.93
2018-09-14T02:35:46.510Z,29.73
2018-09-14T02:38:14.806Z,29.70
2018-09-14T02:40:43.129Z,29.77
2018-09-14T02:43:11.514Z,29.17
2018-09-14T02:45:39.862Z,28.67
2018-09-14T02:48:09.005Z,22.83
2018-09-14T02:50:37.397Z,20.83
2018-09-14T02:53:05.839Z,26.35
2018-09-14T02:55:34.255Z,22.30
2018-09-14T02:58:02.579Z,19.37
2018-09-14T03:00:30.880Z,19.33
2018-09-14T03:02:59.223Z,18.97
2018-09-14T03:05:28.378Z,20.57
2018-09-14T03:07:56.823Z,19.17
2018-09-14T03:10:25.154Z,20.47
2018-09-14T03:12:53.490Z,19.57
2018-09-14T03:15:21.840Z,20.07
2018-09-14T03:17:50.251Z,20.33
2018-09-14T03:20:18.596Z,18.97
2018-09-14T03:22:46.922Z,19.93
2018-09-14T03:25:15.292Z,18.07
2018-09-14T03:27:43.596Z,19.87
2018-09-14T03:30:11.948Z,18.47
2018-09-14T03:32:40.263Z,20.10
2018-09-14T03:35:08.594Z,19.30
2018-09-14T03:37:36.928Z,20.80
2018-09-14T03:40:05.360Z,19.90
2018-09-14T03:42:33.756Z,20.73
2018-09-14T03:45:02.096Z,19.30
2018-09-14T03:47:30.496Z,21.23
2018-09-14T03:49:58.811Z,20.17
2018-09-14T03:52:27.155Z,19.27
2018-09-14T03:54:55.466Z,21.07
2018-09-14T03:57:24.045Z,21.63
2018-09-14T03:59:52.494Z,20.63
2018-09-14T04:02:20.965Z,20.47
2018-09-14T04:04:49.351Z,19.30
2018-09-14T04:07:17.653Z,18.17
2018-09-14T04:09:46.015Z,17.23
2018-09-14T04:12:14.382Z,14.07
2018-09-14T04:14:42.737Z,14.37
2018-09-14T04:17:11.155Z,14.57
2018-09-14T04:19:40.935Z,16.10
2018-09-14T04:22:09.255Z,16.73
2018-09-14T04:24:37.594Z,16.97
2018-09-14T04:27:05.890Z,16.77
2018-09-14T04:29:34.245Z,15.83
2018-09-14T04:32:02.564Z,16.47
2018-09-14T04:34:30.935Z,15.10
2018-09-14T04:36:59.335Z,15.07
2018-09-14T04:39:27.648Z,15.27
2018-09-14T04:41:56.036Z,16.10
2018-09-14T04:44:24.395Z,14.90
2018-09-14T04:46:52.806Z,14.60
2018-09-14T04:49:21.159Z,16.90
2018-09-14T04:51:49.488Z,13.67
2018-09-14T04:54:17.901Z,15.00
2018-09-14T04:56:46.359Z,14.90
2018-09-14T04:59:15.020Z,14.57
2018-09-14T05:01:43.398Z,16.07
2018-09-14T05:04:11.805Z,16.40
2018-09-14T05:06:40.227Z,15.90
2018-09-14T05:09:08.916Z,14.60
2018-09-14T05:11:37.276Z,15.83
2018-09-14T05:14:05.771Z,16.67
2018-09-14T05:16:34.080Z,16.23
2018-09-14T05:19:02.555Z,15.67
2018-09-14T05:21:30.981Z,15.60
2018-09-14T05:23:59.474Z,17.40
2018-09-14T05:26:27.782Z,17.70
2018-09-14T05:28:56.291Z,14.83
2018-09-14T05:31:24.756Z,16.53
2018-09-14T05:33:53.122Z,15.63
2018-09-14T05:36:21.491Z,15.83
2018-09-14T05:38:49.879Z,14.00
2018-09-14T05:41:18.339Z,14.77
2018-09-14T05:43:46.750Z,15.50
2018-09-14T05:46:15.115Z,15.30
2018-09-14T05:48:43.554Z,14.97
2018-09-14T05:51:11.896Z,15.10
2018-09-14T05:53:40.227Z,15.43
2018-09-14T05:56:08.596Z,15.33
2018-09-14T05:58:36.990Z,15.23
2018-09-14T06:01:05.396Z,14.10
2018-09-14T06:03:33.811Z,13.50
2018-09-14T06:06:02.177Z,12.50
2018-09-14T06:08:30.547Z,12.93
2018-09-14T06:10:58.873Z,11.50
2018-09-14T06:13:27.399Z,12.33
2018-09-14T06:15:55.897Z,13.57
2018-09-14T06:18:24.295Z,13.00
2018-09-14T06:20:52.740Z,12.77
2018-09-14T06:23:21.076Z,13.83
2018-09-14T06:25:49.402Z,13.07
2018-09-14T06:28:17.711Z,13.17
2018-09-14T06:30:46.061Z,13.23
2018-09-14T06:33:14.427Z,12.43
2018-09-14T06:35:42.778Z,12.67
2018-09-14T06:38:11.372Z,12.50
2018-09-14T06:40:40.046Z,12.40
2018-09-14T06:43:08.359Z,13.07
2018-09-14T06:45:36.704Z,14.73
2018-09-14T06:48:05.024Z,15.57
2018-09-14T06:50:33.377Z,15.43
2018-09-14T06:53:01.892Z,15.60
2018-09-14T06:55:30.224Z,15.03
2018-09-14T06:57:58.597Z,13.90
2018-09-14T07:00:27.270Z,13.37
2018-09-14T07:02:55.403Z,16.53
2018-09-14T07:05:23.742Z,17.23
2018-09-14T07:07:52.115Z,14.60
2018-09-14T07:10:20.557Z,16.33
2018-09-14T07:12:48.886Z,12.80
2018-09-14T07:15:17.259Z,12.40
2018-09-14T07:17:45.616Z,11.77
2018-09-14T07:20:14.100Z,10.00
2018-09-14T07:22:42.461Z,10.50
2018-09-14T07:25:10.940Z,9.97
2018-09-14T07:27:39.889Z,9.07
2018-09-14T07:30:08.514Z,8.90
2018-09-14T07:32:36.904Z,8.87
2018-09-14T07:35:05.219Z,8.47
2018-09-14T07:37:33.700Z,9.13
2018-09-14T07:40:02.038Z,8.13
2018-09-14T07:42:30.508Z,7.83
2018-09-14T07:44:58.836Z,8.00
2018-09-14T07:47:27.181Z,7.73
2018-09-14T07:49:56.303Z,6.67
2018-09-14T07:52:24.695Z,6.93
2018-09-14T07:54:53.064Z,6.70
2018-09-14T07:57:21.399Z,6.80
2018-09-14T07:59:49.722Z,6.93
2018-09-14T08:02:18.161Z,6.77
2018-09-14T08:04:46.513Z,6.10
2018-09-14T08:07:14.830Z,5.27
2018-09-14T08:09:43.165Z,6.23
2018-09-14T08:12:11.515Z,6.40
2018-09-14T08:14:39.889Z,6.07
2018-09-14T08:17:08.220Z,6.77
2018-09-14T08:19:36.593Z,6.60
2018-09-14T08:22:05.007Z,6.47
2018-09-14T08:24:33.442Z,6.20
2018-09-14T08:27:02.018Z,7.00
2018-09-14T08:29:30.598Z,6.53
2018-09-14T08:31:59.137Z,7.10
2018-09-14T08:34:27.500Z,7.37
2018-09-14T08:36:55.844Z,8.00
2018-09-14T08:39:24.335Z,8.63
2018-09-14T08:41:52.872Z,9.03
2018-09-14T08:44:21.258Z,8.33
2018-09-14T08:46:49.677Z,7.87
2018-09-14T08:49:17.975Z,6.97
2018-09-14T08:51:46.517Z,7.27
2018-09-14T08:54:14.815Z,7.67
2018-09-14T08:56:43.187Z,7.13
2018-09-14T08:59:11.612Z,7.20
2018-09-14T09:01:40.138Z,6.60
2018-09-14T09:04:08.639Z,7.00
2018-09-14T09:06:36.962Z,7.40
2018-09-14T09:09:08.421Z,7.60
2018-09-14T09:11:36.790Z,7.10
2018-09-14T09:14:05.146Z,7.73
2018-09-14T09:16:33.435Z,7.70
2018-09-14T09:19:01.965Z,7.70
2018-09-14T09:21:30.860Z,7.63
2018-09-14T09:23:59.646Z,7.93
2018-09-14T09:26:28.287Z,6.80
2018-09-14T09:28:56.899Z,7.57
2018-09-14T09:31:25.258Z,8.00
2018-09-14T09:33:53.758Z,7.03
2018-09-14T09:36:22.130Z,7.67
2018-09-14T09:38:50.440Z,7.80
2018-09-14T09:41:18.763Z,8.17
2018-09-14T09:43:47.135Z,8.07
2018-09-14T09:46:15.510Z,7.37
2018-09-14T09:48:43.937Z,7.93
2018-09-14T09:51:12.380Z,6.93
2018-09-14T09:53:40.755Z,6.93
2018-09-14T09:56:09.107Z,6.87
2018-09-14T09:58:37.460Z,6.70
2018-09-14T10:01:11.528Z,6.97
2018-09-14T10:03:44.672Z,7.17
2018-09-14T10:06:18.299Z,7.00
2018-09-14T10:08:46.652Z,8.20
2018-09-14T10:11:15.062Z,8.23
2018-09-14T10:13:43.434Z,7.97
2018-09-14T10:16:11.776Z,7.03
2018-09-14T10:18:40.086Z,7.63
2018-09-14T10:21:08.468Z,7.03
2018-09-14T10:23:36.790Z,7.47
2018-09-14T10:26:05.354Z,7.70
2018-09-14T10:28:33.703Z,7.90
2018-09-14T10:31:02.078Z,7.10
2018-09-14T10:33:30.418Z,6.50
2018-09-14T10:35:58.857Z,7.00
2018-09-14T10:38:27.151Z,7.60
2018-09-14T10:40:55.573Z,8.07
2018-09-14T10:43:23.846Z,8.10
2018-09-14T10:45:52.290Z,7.07
2018-09-14T10:48:20.618Z,7.57
2018-09-14T10:50:48.964Z,7.47
2018-09-14T10:53:17.307Z,7.57
2018-09-14T10:55:45.610Z,8.30
2018-09-14T10:58:13.945Z,7.63
2018-09-14T11:00:42.291Z,7.47
2018-09-14T11:03:10.587Z,7.00
2018-09-14T11:05:38.936Z,7.30
2018-09-14T11:08:07.329Z,7.17
2018-09-14T11:10:35.678Z,6.90
2018-09-14T11:13:04.145Z,6.83
2018-09-14T11:15:32.941Z,6.10
2018-09-14T11:18:01.291Z,6.13
2018-09-14T11:20:30.157Z,5.30
2018-09-14T11:22:58.411Z,5.73
2018-09-14T11:25:26.926Z,5.13
2018-09-14T11:27:55.182Z,6.00
2018-09-14T11:30:23.603Z,5.27
2018-09-14T11:32:51.911Z,5.00
2018-09-14T11:35:20.185Z,5.27
2018-09-14T11:37:48.615Z,5.40
2018-09-14T11:40:17.001Z,5.00
2018-09-14T11:42:45.371Z,5.37
2018-09-14T11:45:13.683Z,5.77
2018-09-14T11:47:42.030Z,6.00
2018-09-14T11:50:10.398Z,6.13
2018-09-14T11:52:38.949Z,5.70
2018-09-14T11:55:07.470Z,5.70
2018-09-14T11:57:35.947Z,5.77
2018-09-14T12:00:04.293Z,5.50
2018-09-14T12:02:32.679Z,4.92
2018-09-14T12:05:00.997Z,5.58
2018-09-14T12:07:32.769Z,5.00
2018-09-14T12:10:01.140Z,4.75
2018-09-14T12:12:29.539Z,5.35
2018-09-14T12:14:57.986Z,4.47
2018-09-14T12:17:26.387Z,4.55
2018-09-14T12:19:54.778Z,4.65
2018-09-14T12:22:23.634Z,4.75
2018-09-14T12:24:52.207Z,4.40
2018-09-14T12:27:20.558Z,4.90
2018-09-14T12:29:48.915Z,4.40
2018-09-14T12:32:17.288Z,4.95
2018-09-14T12:34:45.666Z,4.90
2018-09-14T12:37:14.039Z,4.60
2018-09-14T12:39:43.118Z,4.37
2018-09-14T12:42:11.578Z,5.15
2018-09-14T12:44:40.854Z,4.10
2018-09-14T12:47:09.170Z,4.57
2018-09-14T12:49:37.567Z,4.40
2018-09-14T12:52:05.903Z,4.70
2018-09-14T12:54:34.234Z,4.87
2018-09-14T12:57:02.548Z,4.70
2018-09-14T12:59:30.893Z,4.85
2018-09-14T13:01:59.251Z,4.72
2018-09-14T13:04:27.561Z,4.45
2018-09-14T13:06:55.987Z,4.30
2018-09-14T13:09:24.322Z,4.60
2018-09-14T13:11:52.690Z,4.80
2018-09-14T13:14:21.911Z,4.23
2018-09-14T13:16:50.803Z,4.05
2018-09-14T13:19:19.294Z,4.50
2018-09-14T13:21:47.663Z,4.40
2018-09-14T13:24:16.383Z,4.58
2018-09-14T13:26:44.691Z,4.05
2018-09-14T13:29:13.086Z,3.53
2018-09-14T13:31:41.567Z,4.57
2018-09-14T13:34:09.945Z,4.03
2018-09-14T13:36:38.338Z,4.17
2018-09-14T13:39:08.079Z,3.95
2018-09-14T13:41:36.427Z,4.37
2018-09-14T13:44:04.729Z,4.67
2018-09-14T13:46:33.103Z,4.37
2018-09-14T13:49:01.417Z,4.25
2018-09-14T13:51:29.803Z,4.15
2018-09-14T13:53:58.279Z,3.90
2018-09-14T13:56:26.625Z,3.80
2018-09-14T13:58:55.012Z,3.95
2018-09-14T14:01:23.579Z,4.20
2018-09-14T14:03:51.880Z,4.35
2018-09-14T14:06:20.282Z,4.08
2018-09-14T14:08:48.792Z,4.55
2018-09-14T14:11:17.347Z,4.25
2018-09-14T14:13:45.803Z,4.50
2018-09-14T14:16:14.685Z,4.40
2018-09-14T14:18:43.090Z,3.90
2018-09-14T14:21:11.606Z,4.20
2018-09-14T14:23:39.917Z,4.05
2018-09-14T14:26:08.403Z,5.05
2018-09-14T14:28:36.871Z,4.15
2018-09-14T14:31:05.463Z,3.92
2018-09-14T14:33:33.876Z,4.75
2018-09-14T14:36:02.303Z,4.55
2018-09-14T14:38:30.599Z,4.33
2018-09-14T14:40:59.056Z,4.42
2018-09-14T14:43:27.433Z,4.70
2018-09-14T14:45:55.732Z,4.37
2018-09-14T14:48:24.112Z,4.78
2018-09-14T14:50:52.627Z,4.40
2018-09-14T14:53:21.053Z,4.10
2018-09-14T14:55:49.425Z,4.12
2018-09-14T14:58:17.782Z,4.33
2018-09-14T15:00:46.078Z,4.30
2018-09-14T15:03:14.597Z,4.13
2018-09-14T15:05:42.949Z,4.40
2018-09-14T15:08:11.305Z,4.17
2018-09-14T15:10:39.685Z,4.15
2018-09-14T15:13:07.959Z,3.98
2018-09-14T15:15:36.294Z,4.37
2018-09-14T15:18:04.596Z,4.57
2018-09-14T15:20:32.958Z,4.60
2018-09-14T15:23:01.308Z,4.60
2018-09-14T15:25:29.814Z,3.87
2018-09-14T15:27:58.174Z,4.40
2018-09-14T15:30:26.529Z,4.57
2018-09-14T15:32:54.874Z,3.92
2018-09-14T15:35:23.306Z,4.35
2018-09-14T15:37:51.699Z,4.42
2018-09-14T15:40:20.065Z,4.00
2018-09-14T15:42:48.469Z,3.90
2018-09-14T15:45:17.009Z,4.00
2018-09-14T15:47:45.402Z,4.45
2018-09-14T15:50:13.761Z,4.30
2018-09-14T15:52:42.160Z,4.70
2018-09-14T15:55:10.474Z,4.37
2018-09-14T15:57:38.841Z,4.00
2018-09-14T16:00:07.335Z,4.60
2018-09-14T16:02:35.719Z,4.10
2018-09-14T16:05:04.212Z,4.28
2018-09-14T16:07:32.540Z,3.80
2018-09-14T16:10:00.914Z,4.20
2018-09-14T16:12:29.326Z,4.40
2018-09-14T16:14:57.698Z,3.80
2018-09-14T16:17:26.238Z,4.30
2018-09-14T16:19:54.656Z,4.10
2018-09-14T16:22:22.987Z,4.00
2018-09-14T16:24:51.280Z,4.05
2018-09-14T16:27:19.630Z,4.13
2018-09-14T16:29:47.971Z,4.22
2018-09-14T16:32:16.336Z,3.90
2018-09-14T16:34:44.737Z,3.90
2018-09-14T16:37:13.091Z,4.00
2018-09-14T16:39:41.406Z,4.15
2018-09-14T16:42:10.151Z,3.97
2018-09-14T16:44:41.128Z,3.60
2018-09-14T16:47:09.939Z,3.70
2018-09-14T16:49:38.996Z,3.70
2018-09-14T16:52:08.375Z,3.37
2018-09-14T16:54:36.860Z,3.30
2018-09-14T16:57:07.054Z,3.67
2018-09-14T16:59:35.574Z,3.60
2018-09-14T17:02:03.938Z,3.23
2018-09-14T17:04:32.719Z,3.60
2018-09-14T17:07:01.432Z,3.40
2018-09-14T17:09:29.766Z,3.43
2018-09-14T17:11:58.144Z,3.63
2018-09-14T17:14:26.566Z,3.80
2018-09-14T17:16:54.864Z,3.50
2018-09-14T17:19:23.237Z,3.63
2018-09-14T17:21:51.623Z,3.70
2018-09-14T17:24:20.039Z,3.70
2018-09-14T17:26:48.879Z,3.50
2018-09-14T17:29:17.291Z,3.67
2018-09-14T17:31:45.664Z,3.50
2018-09-14T17:34:14.069Z,3.73
2018-09-14T17:36:42.542Z,3.87
2018-09-14T17:39:11.411Z,3.80
2018-09-14T17:41:39.759Z,3.53
2018-09-14T17:44:08.212Z,3.60
2018-09-14T17:46:36.578Z,3.37
2018-09-14T17:49:04.903Z,4.10
2018-09-14T17:51:33.290Z,3.47
2018-09-14T17:54:01.654Z,3.60
2018-09-14T17:56:30.234Z,3.63
2018-09-14T17:58:58.543Z,3.67
2018-09-14T18:01:26.890Z,4.00
2018-09-14T18:03:55.259Z,4.13
2018-09-14T18:06:23.556Z,3.67
2018-09-14T18:08:51.980Z,3.97
2018-09-14T18:11:20.474Z,4.30
2018-09-14T18:13:49.743Z,4.17
2018-09-14T18:16:18.678Z,4.10
2018-09-14T18:18:47.567Z,3.70
2018-09-14T18:21:16.351Z,4.10
2018-09-14T18:23:45.051Z,4.10
2018-09-14T18:26:13.407Z,3.80
2018-09-14T18:28:42.258Z,4.40
2018-09-14T18:31:10.614Z,3.90
2018-09-14T18:33:38.979Z,4.00
2018-09-14T18:36:07.453Z,4.27
2018-09-14T18:38:36.127Z,4.20
2018-09-14T18:41:04.624Z,4.13
2018-09-14T18:43:33.167Z,4.10
2018-09-14T18:46:01.824Z,4.17
2018-09-14T18:48:30.283Z,4.70
2018-09-14T18:50:58.764Z,4.97
2018-09-14T18:53:27.138Z,4.50
2018-09-14T18:55:55.512Z,4.37
2018-09-14T18:58:24.160Z,4.70
2018-09-14T19:00:52.555Z,4.63
2018-09-14T19:03:20.939Z,4.60
2018-09-14T19:05:49.483Z,4.73
2018-09-14T19:08:17.986Z,5.10
2018-09-14T19:10:46.339Z,5.03
2018-09-14T19:13:14.891Z,4.80
2018-09-14T19:15:43.336Z,5.33
2018-09-14T19:18:11.835Z,5.10
2018-09-14T19:20:40.370Z,5.23
2018-09-14T19:23:08.913Z,5.50
2018-09-14T19:25:37.805Z,5.20
2018-09-14T19:28:06.392Z,5.73
2018-09-14T19:30:34.909Z,6.97
2018-09-14T19:33:03.326Z,7.00
2018-09-14T19:35:32.262Z,6.77
2018-09-14T19:38:00.614Z,10.90
2018-09-14T19:40:28.978Z,19.53
2018-09-14T19:42:57.287Z,23.77
2018-09-14T19:45:25.631Z,26.23
2018-09-14T19:47:53.974Z,26.17
2018-09-14T19:50:22.870Z,25.37
2018-09-14T19:52:51.261Z,23.27
2018-09-14T19:55:19.751Z,20.90
2018-09-14T19:57:48.121Z,17.43
2018-09-14T20:00:16.508Z,16.33
2018-09-14T20:02:44.860Z,14.07
2018-09-14T20:05:13.173Z,13.03
2018-09-14T20:07:41.575Z,12.73
2018-09-14T20:10:10.022Z,11.90
2018-09-14T20:12:38.453Z,11.90
2018-09-14T20:15:07.207Z,9.93
2018-09-14T20:17:35.554Z,10.50
2018-09-14T20:20:03.946Z,9.93
2018-09-14T20:22:32.280Z,9.47
2018-09-14T20:25:00.667Z,10.00
2018-09-14T20:27:28.958Z,9.57
2018-09-14T20:29:57.322Z,8.77
2018-09-14T20:32:25.732Z,9.17
2018-09-14T20:34:54.132Z,9.53
2018-09-14T20:37:22.588Z,9.63
2018-09-14T20:39:50.922Z,10.03
2018-09-14T20:42:19.405Z,14.37
2018-09-14T20:44:47.764Z,18.43
2018-09-14T20:47:16.089Z,18.77
2018-09-14T20:49:44.392Z,21.17
2018-09-14T20:52:12.721Z,19.50
2018-09-14T20:54:41.103Z,20.40
2018-09-14T20:57:09.456Z,19.13
2018-09-14T20:59:37.754Z,18.73
2018-09-14T21:02:06.255Z,17.17
2018-09-14T21:04:34.606Z,15.70
2018-09-14T21:07:03.025Z,15.53
2018-09-14T21:09:31.343Z,14.53
2018-09-14T21:11:59.803Z,14.33
2018-09-14T21:14:28.091Z,13.73
2018-09-14T21:16:56.439Z,12.57
2018-09-14T21:19:24.855Z,12.93
2018-09-14T21:21:53.305Z,11.87
2018-09-14T21:24:21.598Z,10.60
2018-09-14T21:26:50.201Z,9.77
2018-09-14T21:29:18.642Z,8.67
2018-09-14T21:31:46.935Z,10.87
2018-09-14T21:34:15.260Z,12.63
2018-09-14T21:36:43.580Z,11.77
2018-09-14T21:39:12.529Z,12.93
2018-09-14T21:41:41.179Z,11.60
2018-09-14T21:44:10.211Z,12.37
2018-09-14T21:46:38.560Z,13.33
2018-09-14T21:49:07.238Z,13.43
2018-09-14T21:51:35.575Z,12.97
2018-09-14T21:54:03.955Z,13.50
2018-09-14T21:56:32.233Z,12.10
2018-09-14T21:59:00.528Z,11.87
2018-09-14T22:01:30.070Z,12.07
2018-09-14T22:03:59.650Z,11.90
2018-09-14T22:06:28.114Z,11.43
2018-09-14T22:08:56.926Z,12.03
2018-09-14T22:11:25.277Z,11.47
2018-09-14T22:13:53.639Z,10.87
2018-09-14T22:16:21.986Z,11.03
2018-09-14T22:18:50.327Z,11.23
2018-09-14T22:21:19.621Z,11.80
2018-09-14T22:23:48.271Z,10.30
2018-09-14T22:26:16.635Z,11.00
2018-09-14T22:28:44.975Z,11.30
2018-09-14T22:31:13.561Z,10.77
2018-09-14T22:33:41.892Z,11.03
2018-09-14T22:36:10.211Z,10.00
2018-09-14T22:38:38.735Z,10.80
2018-09-14T22:46:52.370Z,10.97
2018-09-14T22:49:20.665Z,9.77
2018-09-14T22:51:49.154Z,9.87
2018-09-14T22:54:17.463Z,9.93
2018-09-14T22:56:45.775Z,10.17
2018-09-14T22:59:14.138Z,8.80
2018-09-14T23:01:42.472Z,9.83
2018-09-14T23:04:10.746Z,9.47
2018-09-14T23:06:39.141Z,9.93
2018-09-14T23:09:08.280Z,9.23
2018-09-14T23:11:36.649Z,9.13
2018-09-14T23:14:05.034Z,9.53
2018-09-14T23:16:33.339Z,9.47
2018-09-14T23:19:01.617Z,9.10
2018-09-14T23:21:29.926Z,8.93
2018-09-14T23:23:58.290Z,9.17
2018-09-14T23:26:27.028Z,9.00
2018-09-14T23:28:55.363Z,8.53
2018-09-14T23:31:23.687Z,8.97
2018-09-14T23:33:52.058Z,8.77
2018-09-14T23:36:20.345Z,8.87
2018-09-14T23:38:48.715Z,8.67
2018-09-14T23:41:17.010Z,8.83
2018-09-14T23:43:45.308Z,9.23
2018-09-14T23:46:13.645Z,9.43
2018-09-14T23:48:41.928Z,8.90
2018-09-14T23:51:10.235Z,9.53
2018-09-14T23:53:38.552Z,9.73
2018-09-14T23:56:06.884Z,9.43
2018-09-14T23:58:35.424Z,8.97
